createdAt,value
2023-01-13T00:00:55.918Z,72.88
2023-01-13T00:06:00.069Z,73.46
2023-01-13T00:11:02.926Z,73.10
2023-01-13T00:16:06.520Z,73.66
2023-01-13T00:21:13.594Z,73.57
2023-01-13T00:26:19.591Z,73.63
2023-01-13T00:31:22.436Z,73.43
2023-01-13T00:36:25.472Z,73.61
2023-01-13T00:41:28.194Z,74.00
2023-01-13T00:46:30.742Z,73.92
2023-01-13T00:51:33.453Z,73.91
2023-01-13T00:56:40.803Z,74.13
2023-01-13T01:01:44.328Z,74.07
2023-01-13T01:06:47.315Z,74.35
2023-01-13T01:11:50.033Z,74.26
2023-01-13T01:16:52.763Z,74.21
2023-01-13T01:21:55.548Z,74.63
2023-01-13T01:26:58.319Z,74.31
2023-01-13T01:32:00.992Z,74.35
2023-01-13T01:37:03.733Z,74.18
2023-01-13T01:42:24.854Z,74.16
2023-01-13T01:47:28.854Z,74.95
2023-01-13T01:52:35.985Z,74.83
2023-01-13T01:57:50.883Z,75.14
2023-01-13T02:02:53.801Z,75.05
2023-01-13T02:07:58.562Z,75.49
2023-01-13T02:13:03.959Z,75.24
2023-01-13T02:18:22.016Z,75.40
2023-01-13T02:23:52.365Z,75.68
2023-01-13T02:29:34.822Z,75.68
2023-01-13T02:34:42.491Z,74.88
2023-01-13T02:40:26.667Z,75.60
2023-01-13T02:45:34.674Z,75.55
2023-01-13T02:50:41.739Z,75.35
2023-01-13T02:55:50.811Z,75.12
2023-01-13T03:00:53.881Z,75.55
2023-01-13T03:06:09.466Z,75.35
2023-01-13T03:11:13.776Z,75.55
2023-01-13T03:16:22.527Z,76.25
2023-01-13T03:21:51.786Z,75.86
2023-01-13T03:27:04.735Z,75.79
2023-01-13T03:32:10.139Z,76.08
2023-01-13T03:37:14.867Z,75.70
2023-01-13T03:42:24.321Z,75.56
2023-01-13T03:47:44.373Z,75.67
2023-01-13T03:53:13.768Z,75.92
2023-01-13T03:58:46.340Z,75.94
2023-01-13T04:03:55.299Z,76.13
2023-01-13T04:09:36.700Z,75.84
2023-01-13T04:14:39.737Z,76.00
2023-01-13T04:19:42.459Z,76.06
2023-01-13T04:24:45.271Z,75.40
2023-01-13T04:29:48.064Z,76.04
2023-01-13T04:34:50.924Z,75.51
2023-01-13T04:39:53.576Z,75.82
2023-01-13T04:44:57.013Z,75.39
2023-01-13T04:50:00.126Z,75.42
2023-01-13T04:55:02.856Z,74.83
2023-01-13T05:00:07.658Z,74.88
2023-01-13T05:05:10.909Z,74.82
2023-01-13T05:10:13.924Z,74.40
2023-01-13T05:15:35.125Z,74.49
2023-01-13T05:20:38.044Z,74.52
2023-01-13T05:25:44.193Z,74.28
2023-01-13T05:30:49.682Z,74.37
2023-01-13T05:35:52.886Z,74.04
2023-01-13T05:41:14.125Z,74.45
2023-01-13T05:46:18.022Z,74.43
2023-01-13T05:51:26.501Z,74.50
2023-01-13T05:56:29.414Z,74.40
2023-01-13T06:01:32.082Z,74.13
2023-01-13T06:06:34.963Z,73.79
2023-01-13T06:11:37.595Z,73.92
2023-01-13T06:16:40.828Z,73.60
2023-01-13T06:21:46.544Z,73.49
2023-01-13T06:26:49.217Z,73.47
2023-01-13T06:31:51.929Z,73.08
2023-01-13T06:36:55.655Z,72.85
2023-01-13T06:42:16.790Z,72.73
2023-01-13T06:47:19.611Z,72.70
2023-01-13T06:52:23.855Z,72.16
2023-01-13T06:57:26.785Z,71.54
2023-01-13T07:02:29.472Z,71.62
2023-01-13T07:07:33.124Z,71.84
2023-01-13T07:12:56.560Z,71.55
2023-01-13T07:17:59.990Z,71.86
2023-01-13T07:23:02.520Z,71.77
2023-01-13T07:28:05.238Z,72.12
2023-01-13T07:33:07.976Z,72.90
2023-01-13T07:38:10.742Z,72.91
2023-01-13T07:43:32.221Z,72.60
2023-01-13T07:48:35.560Z,72.61
2023-01-13T07:53:38.802Z,72.71
2023-01-13T07:58:41.842Z,72.36
2023-01-13T08:03:44.808Z,72.66
2023-01-13T08:08:47.451Z,72.91
2023-01-13T08:13:50.196Z,72.52
2023-01-13T08:18:52.901Z,72.52
2023-01-13T08:23:55.600Z,72.88
2023-01-13T08:28:58.288Z,72.97
2023-01-13T08:34:00.964Z,73.15
2023-01-13T08:39:04.199Z,73.16
2023-01-13T08:44:09.440Z,73.07
2023-01-13T08:49:12.166Z,73.40
2023-01-13T08:54:14.975Z,73.90
2023-01-13T08:59:19.283Z,74.17
2023-01-13T09:04:24.051Z,74.11
2023-01-13T09:09:28.165Z,74.21
2023-01-13T09:14:33.069Z,74.25
2023-01-13T09:19:36.019Z,74.27
2023-01-13T09:24:38.730Z,74.25
2023-01-13T09:29:41.947Z,74.47
2023-01-13T09:35:03.159Z,74.82
2023-01-13T09:40:15.942Z,75.20
2023-01-13T09:45:23.320Z,75.38
2023-01-13T09:50:44.050Z,75.50
2023-01-13T09:55:47.253Z,75.64
2023-01-13T10:00:55.771Z,75.71
2023-01-13T10:06:12.941Z,75.51
2023-01-13T10:11:39.238Z,75.58
2023-01-13T10:16:46.938Z,76.04
2023-01-13T10:22:15.687Z,76.35
2023-01-13T10:27:27.112Z,76.33
2023-01-13T10:32:29.801Z,76.85
2023-01-13T10:37:32.593Z,76.69
2023-01-13T10:42:35.301Z,76.42
2023-01-13T10:47:38.184Z,76.41
2023-01-13T10:52:55.054Z,76.68
2023-01-13T10:57:57.852Z,76.70
2023-01-13T11:03:22.065Z,76.98
2023-01-13T11:08:46.054Z,76.37
2023-01-13T11:14:09.284Z,76.71
2023-01-13T11:19:16.541Z,76.54
2023-01-13T11:24:43.443Z,76.88
2023-01-13T11:30:04.572Z,76.75
2023-01-13T11:35:18.688Z,76.81
2023-01-13T11:40:43.505Z,76.91
2023-01-13T11:45:51.469Z,76.79
2023-01-13T11:51:06.299Z,77.04
2023-01-13T11:56:28.128Z,76.87
2023-01-13T12:01:39.929Z,77.14
2023-01-13T12:06:43.939Z,77.25
2023-01-13T12:12:23.705Z,77.29
2023-01-13T12:17:44.023Z,77.27
2023-01-13T12:22:48.664Z,76.86
2023-01-13T12:28:04.067Z,77.14
2023-01-13T12:33:42.021Z,77.35
2023-01-13T12:39:05.005Z,77.13
2023-01-13T12:44:20.781Z,77.43
2023-01-13T12:49:30.352Z,77.48
2023-01-13T12:54:42.803Z,77.14
2023-01-13T12:59:49.414Z,76.92
2023-01-13T13:04:56.432Z,77.04
2023-01-13T13:10:03.109Z,77.10
2023-01-13T13:15:20.691Z,77.14
2023-01-13T13:20:57.487Z,76.83
2023-01-13T13:26:24.234Z,77.02
2023-01-13T13:31:45.183Z,77.01
2023-01-13T13:38:00.218Z,77.16
2023-01-13T13:43:22.675Z,77.14
2023-01-13T13:48:31.091Z,77.04
2023-01-13T13:53:35.955Z,77.21
2023-01-13T13:58:38.726Z,77.07
2023-01-13T14:03:41.524Z,76.87
2023-01-13T14:08:50.307Z,76.88
2023-01-13T14:14:07.090Z,77.26
2023-01-13T14:19:44.535Z,77.32
2023-01-13T14:24:49.690Z,77.45
2023-01-13T14:29:56.896Z,76.87
2023-01-13T14:35:00.030Z,77.03
2023-01-13T14:40:03.016Z,77.32
2023-01-13T14:45:23.568Z,77.05
2023-01-13T14:50:31.755Z,77.07
2023-01-13T14:55:40.855Z,77.05
2023-01-13T15:00:43.647Z,76.92
2023-01-13T15:05:48.650Z,77.05
2023-01-13T15:11:00.239Z,76.44
2023-01-13T15:16:07.926Z,77.14
2023-01-13T15:21:11.137Z,76.99
2023-01-13T15:26:20.564Z,76.99
2023-01-13T15:31:24.337Z,77.12
2023-01-13T15:36:31.891Z,76.90
2023-01-13T15:41:53.285Z,76.85
2023-01-13T15:46:56.225Z,76.82
2023-01-13T15:51:58.976Z,76.82
2023-01-13T15:57:01.740Z,77.06
2023-01-13T16:02:04.482Z,76.86
2023-01-13T16:07:14.583Z,76.75
2023-01-13T16:12:17.467Z,76.90
2023-01-13T16:17:24.211Z,76.82
2023-01-13T16:22:27.124Z,76.92
2023-01-13T16:27:29.804Z,76.96
2023-01-13T16:32:32.518Z,76.78
2023-01-13T16:37:35.253Z,76.95
2023-01-13T16:42:38.188Z,76.94
2023-01-13T16:47:41.164Z,76.83
2023-01-13T16:52:43.896Z,77.02
2023-01-13T16:57:46.667Z,77.00
2023-01-13T17:02:49.560Z,76.63
2023-01-13T17:07:52.337Z,76.77
2023-01-13T17:12:56.041Z,76.94
2023-01-13T17:18:00.351Z,76.98
2023-01-13T17:23:03.026Z,76.83
2023-01-13T17:28:05.764Z,76.69
2023-01-13T17:33:08.470Z,77.10
2023-01-13T17:38:11.364Z,76.93
2023-01-13T17:43:14.053Z,76.91
2023-01-13T17:48:16.792Z,77.21
2023-01-13T17:53:20.262Z,77.17
2023-01-13T17:58:22.885Z,77.10
2023-01-13T18:03:25.718Z,76.97
2023-01-13T18:08:28.722Z,77.07
2023-01-13T18:13:33.386Z,77.06
2023-01-13T18:18:36.064Z,77.17
2023-01-13T18:24:11.107Z,77.35
2023-01-13T18:29:13.784Z,77.31
2023-01-13T18:34:16.572Z,77.71
2023-01-13T18:39:19.282Z,77.50
2023-01-13T18:44:22.124Z,77.63
2023-01-13T18:49:24.840Z,77.46
2023-01-13T18:54:27.741Z,77.33
2023-01-13T18:59:31.496Z,77.54
2023-01-13T19:04:36.093Z,77.60
2023-01-13T19:09:39.849Z,77.83
2023-01-13T19:14:44.482Z,77.70
2023-01-13T19:19:51.089Z,77.82
2023-01-13T19:24:53.983Z,77.76
2023-01-13T19:30:02.335Z,77.72
2023-01-13T19:35:07.612Z,77.68
2023-01-13T19:40:14.241Z,77.71
2023-01-13T19:45:32.426Z,77.75
2023-01-13T19:50:40.032Z,77.42
2023-01-13T19:55:49.662Z,77.27
2023-01-13T20:00:56.086Z,77.98
2023-01-13T20:06:06.430Z,77.37
2023-01-13T20:11:23.300Z,77.48
2023-01-13T20:16:26.943Z,77.69
2023-01-13T20:21:29.613Z,77.85
2023-01-13T20:26:32.690Z,77.79
2023-01-13T20:31:35.403Z,77.78
2023-01-13T20:36:39.283Z,77.50
2023-01-13T20:42:14.724Z,77.46
2023-01-13T20:47:17.360Z,77.19
2023-01-13T20:52:20.715Z,77.13
2023-01-13T20:57:23.412Z,77.18
2023-01-13T21:02:26.040Z,77.12
2023-01-13T21:07:28.830Z,77.12
2023-01-13T21:12:50.336Z,77.23
2023-01-13T21:18:11.562Z,77.17
2023-01-13T21:23:14.174Z,77.21
2023-01-13T21:28:18.216Z,77.29
2023-01-13T21:33:22.004Z,77.02
2023-01-13T21:38:27.074Z,77.29
2023-01-13T21:43:48.504Z,77.09
2023-01-13T21:48:51.121Z,77.18
2023-01-13T21:53:54.577Z,76.88
2023-01-13T21:58:57.133Z,77.03
2023-01-13T22:04:14.792Z,76.93
2023-01-13T22:09:17.702Z,76.97
2023-01-13T22:14:20.403Z,76.94
2023-01-13T22:19:24.480Z,77.11
2023-01-13T22:24:27.216Z,77.10
2023-01-13T22:29:29.821Z,77.30
2023-01-13T22:34:32.844Z,77.09
2023-01-13T22:39:35.614Z,77.43
2023-01-13T22:44:38.638Z,77.31
2023-01-13T22:49:42.434Z,77.39
2023-01-13T22:54:45.207Z,77.52
2023-01-13T22:59:48.045Z,77.26
2023-01-13T23:04:51.064Z,77.63
2023-01-13T23:09:53.729Z,77.46
2023-01-13T23:14:56.603Z,77.69
2023-01-13T23:19:59.272Z,77.89
2023-01-13T23:25:02.034Z,78.17
2023-01-13T23:30:08.276Z,78.41
2023-01-13T23:35:11.281Z,78.12
2023-01-13T23:40:14.327Z,78.57
2023-01-13T23:45:17.129Z,78.81
2023-01-13T23:50:19.891Z,78.59
2023-01-13T23:55:22.815Z,78.88
